createdAt,value
2022-12-23T00:02:12.093Z,98954.60
2022-12-23T00:07:13.687Z,98960.40
2022-12-23T00:12:34.142Z,98966.20
2022-12-23T00:17:45.593Z,98974.00
2022-12-23T00:23:05.551Z,98979.40
2022-12-23T00:28:17.693Z,98982.80
2022-12-23T00:33:23.278Z,98977.80
2022-12-23T00:38:45.089Z,98986.00
2022-12-23T00:43:46.705Z,98990.00
2022-12-23T00:49:07.086Z,98991.00
2022-12-23T00:54:08.746Z,98992.60
2022-12-23T00:59:10.288Z,99003.60
2022-12-23T01:04:35.552Z,99002.60
2022-12-23T01:09:37.298Z,99009.20
2022-12-23T01:14:39.098Z,99000.20
2022-12-23T01:19:40.672Z,98994.00
2022-12-23T01:24:42.215Z,98995.80
2022-12-23T01:29:45.494Z,98999.60
2022-12-23T01:34:47.021Z,99003.60
2022-12-23T01:39:48.957Z,99005.40
2022-12-23T01:45:31.147Z,99017.40
2022-12-23T01:50:40.532Z,99027.40
2022-12-23T01:56:16.511Z,99029.40
2022-12-23T02:01:37.013Z,99029.40
2022-12-23T02:07:03.291Z,99034.00
2022-12-23T02:12:41.237Z,99032.20
2022-12-23T02:18:13.740Z,99032.00
2022-12-23T02:24:02.944Z,99036.80
2022-12-23T02:29:37.712Z,99032.20
2022-12-23T02:35:28.907Z,99027.20
2022-12-23T02:41:07.986Z,99037.40
2022-12-23T02:46:31.326Z,99037.40
2022-12-23T02:51:44.081Z,99035.80
2022-12-23T02:56:50.481Z,99036.60
2022-12-23T03:01:54.573Z,99045.20
2022-12-23T03:07:02.824Z,99056.60
2022-12-23T03:12:22.187Z,99049.80
2022-12-23T03:17:48.630Z,99039.80
2022-12-23T03:23:05.814Z,99036.20
2022-12-23T03:28:20.216Z,99033.40
2022-12-23T03:33:34.425Z,99035.40
2022-12-23T03:38:39.888Z,99041.80
2022-12-23T03:43:51.277Z,99041.20
2022-12-23T03:48:59.247Z,99045.60
2022-12-23T03:54:11.471Z,99044.20
2022-12-23T03:59:34.986Z,99030.40
2022-12-23T04:05:01.628Z,99048.40
2022-12-23T04:10:04.839Z,99053.20
2022-12-23T04:15:12.518Z,99055.20
2022-12-23T04:20:15.068Z,99050.60
2022-12-23T04:25:18.122Z,99036.40
2022-12-23T04:30:19.842Z,99040.40
2022-12-23T04:35:22.040Z,99032.60
2022-12-23T04:40:23.740Z,99035.60
2022-12-23T04:45:25.286Z,99042.00
2022-12-23T04:50:26.914Z,99047.00
2022-12-23T04:55:28.573Z,99053.20
2022-12-23T05:00:35.465Z,99054.20
2022-12-23T05:05:44.456Z,99048.20
2022-12-23T05:10:45.994Z,99052.40
2022-12-23T05:15:53.595Z,99042.20
2022-12-23T05:20:55.286Z,99038.20
2022-12-23T05:25:57.227Z,99043.40
2022-12-23T05:31:02.068Z,99050.40
2022-12-23T05:36:04.825Z,99056.40
2022-12-23T05:41:07.268Z,99057.00
2022-12-23T05:46:08.889Z,99060.20
2022-12-23T05:51:10.481Z,99058.00
2022-12-23T05:56:12.034Z,99057.20
2022-12-23T06:01:13.792Z,99059.80
2022-12-23T06:06:15.352Z,99064.40
2022-12-23T06:11:17.035Z,99071.20
2022-12-23T06:16:18.744Z,99066.60
2022-12-23T06:21:20.366Z,99075.20
2022-12-23T06:26:22.393Z,99084.80
2022-12-23T06:31:24.025Z,99086.60
2022-12-23T06:36:25.748Z,99081.40
2022-12-23T06:41:27.303Z,99092.40
2022-12-23T06:46:28.911Z,99095.80
2022-12-23T06:51:30.594Z,99087.60
2022-12-23T06:56:35.260Z,99099.60
2022-12-23T07:01:36.975Z,99105.60
2022-12-23T07:06:39.225Z,99104.60
2022-12-23T07:11:40.772Z,99101.00
2022-12-23T07:16:42.429Z,99108.40
2022-12-23T07:21:43.978Z,99110.00
2022-12-23T07:26:45.497Z,99110.60
2022-12-23T07:31:47.061Z,99110.00
2022-12-23T07:36:48.628Z,99108.00
2022-12-23T07:41:59.009Z,99109.20
2022-12-23T07:47:11.006Z,99108.80
2022-12-23T07:52:12.556Z,99110.40
2022-12-23T07:57:14.104Z,99111.40
2022-12-23T08:02:15.759Z,99127.00
2022-12-23T08:07:17.554Z,99116.60
2022-12-23T08:12:19.238Z,99113.80
2022-12-23T08:17:25.133Z,99113.80
2022-12-23T08:22:26.753Z,99109.20
2022-12-23T08:27:28.326Z,99108.20
2022-12-23T08:32:29.894Z,99109.40
2022-12-23T08:37:31.427Z,99119.00
2022-12-23T08:42:33.000Z,99125.80
2022-12-23T08:47:34.597Z,99116.20
2022-12-23T08:52:36.205Z,99125.00
2022-12-23T08:57:37.897Z,99125.20
2022-12-23T09:02:39.744Z,99121.60
2022-12-23T09:07:41.531Z,99121.20
2022-12-23T09:12:43.136Z,99118.40
2022-12-23T09:17:44.695Z,99120.60
2022-12-23T09:22:46.219Z,99120.00
2022-12-23T09:27:47.839Z,99117.60
2022-12-23T09:32:50.041Z,99113.20
2022-12-23T09:37:51.633Z,99113.60
2022-12-23T09:43:44.850Z,99109.00
2022-12-23T09:49:00.156Z,99104.20
2022-12-23T09:54:11.988Z,99106.00
2022-12-23T09:59:27.704Z,99108.60
2022-12-23T10:04:35.998Z,99105.40
2022-12-23T10:09:42.091Z,99099.00
2022-12-23T10:14:47.127Z,99102.40
2022-12-23T10:19:50.219Z,99097.00
2022-12-23T10:24:56.253Z,99087.60
2022-12-23T10:30:42.443Z,99090.00
2022-12-23T10:35:41.979Z,99081.20
2022-12-23T10:41:08.797Z,99074.80
2022-12-23T10:46:54.277Z,99070.40
2022-12-23T10:52:11.354Z,99068.20
2022-12-23T10:57:19.812Z,99065.20
2022-12-23T11:02:42.878Z,99059.00
2022-12-23T11:07:46.718Z,99055.60
2022-12-23T11:12:52.635Z,99046.40
2022-12-23T11:18:12.506Z,99042.40
2022-12-23T11:23:28.807Z,99041.00
2022-12-23T11:28:33.541Z,99024.80
2022-12-23T11:34:05.167Z,99021.00
2022-12-23T11:39:09.678Z,99023.00
2022-12-23T11:44:20.375Z,99022.80
2022-12-23T11:49:26.541Z,99022.20
2022-12-23T11:54:31.033Z,99015.20
2022-12-23T11:59:38.459Z,99014.80
2022-12-23T12:04:42.068Z,99031.60
2022-12-23T12:09:45.347Z,99036.40
2022-12-23T12:14:51.909Z,99039.20
2022-12-23T12:20:00.798Z,99042.80
2022-12-23T12:25:41.015Z,99050.00
2022-12-23T12:30:58.837Z,99044.20
2022-12-23T12:36:15.222Z,99040.40
2022-12-23T12:41:40.364Z,99045.20
2022-12-23T12:47:01.855Z,99043.00
2022-12-23T12:52:21.210Z,99052.40
2022-12-23T12:57:24.295Z,99050.40
2022-12-23T13:02:28.609Z,99041.60
2022-12-23T13:07:57.970Z,99039.80
2022-12-23T13:13:10.005Z,99048.00
2022-12-23T13:18:33.060Z,99051.60
2022-12-23T13:23:46.428Z,99060.60
2022-12-23T13:29:21.126Z,99051.00
2022-12-23T13:35:08.754Z,99055.40
2022-12-23T13:40:35.317Z,99048.60
2022-12-23T13:45:40.029Z,99047.40
2022-12-23T13:50:52.963Z,99055.60
2022-12-23T13:56:21.887Z,99049.20
2022-12-23T14:01:35.949Z,99048.60
2022-12-23T14:06:37.461Z,99051.60
2022-12-23T14:11:39.127Z,99051.80
2022-12-23T14:17:15.797Z,99050.60
2022-12-23T14:22:38.612Z,99053.40
2022-12-23T14:28:09.293Z,99052.80
2022-12-23T14:33:13.901Z,99054.20
2022-12-23T14:38:15.421Z,99056.00
2022-12-23T14:43:26.270Z,99057.00
2022-12-23T14:48:34.077Z,99050.00
2022-12-23T14:53:59.410Z,99057.40
2022-12-23T14:59:46.295Z,99057.80
2022-12-23T15:04:55.307Z,99063.80
2022-12-23T15:10:20.284Z,99070.80
2022-12-23T15:15:27.701Z,99070.80
2022-12-23T15:20:29.617Z,99084.80
2022-12-23T15:25:34.767Z,99081.80
2022-12-23T15:30:49.114Z,99080.60
2022-12-23T15:35:51.481Z,99078.00
2022-12-23T15:41:12.760Z,99077.60
2022-12-23T15:46:26.800Z,99088.40
2022-12-23T15:52:05.638Z,99099.20
2022-12-23T15:57:01.190Z,99109.80
2022-12-23T16:07:43.012Z,99095.00
2022-12-23T16:12:44.852Z,99097.00
2022-12-23T16:17:46.374Z,99101.20
2022-12-23T16:22:58.355Z,99106.20
2022-12-23T16:28:13.915Z,99103.80
2022-12-23T16:33:49.599Z,99108.00
2022-12-23T16:39:08.968Z,99108.00
2022-12-23T16:44:10.890Z,99100.60
2022-12-23T16:49:20.519Z,99104.60
2022-12-23T16:54:22.494Z,99109.60
2022-12-23T16:59:25.735Z,99113.20
2022-12-23T17:04:27.476Z,99117.80
2022-12-23T17:09:29.073Z,99118.60
2022-12-23T17:14:30.998Z,99127.20
2022-12-23T17:19:33.437Z,99124.00
2022-12-23T17:24:35.187Z,99128.20
2022-12-23T17:29:36.752Z,99129.20
2022-12-23T17:34:39.161Z,99130.00
2022-12-23T17:39:43.199Z,99129.20
2022-12-23T17:44:44.722Z,99134.20
2022-12-23T17:49:46.987Z,99134.60
2022-12-23T17:54:50.656Z,99123.80
2022-12-23T17:59:53.966Z,99109.40
2022-12-23T18:04:55.930Z,99104.20
2022-12-23T18:09:57.526Z,99110.00
2022-12-23T18:15:00.263Z,99108.40
2022-12-23T18:20:03.625Z,99118.00
2022-12-23T18:25:05.794Z,99128.80
2022-12-23T18:30:08.724Z,99126.80
2022-12-23T18:35:27.111Z,99130.20
2022-12-23T18:40:32.708Z,99138.40
2022-12-23T18:45:37.371Z,99132.40
2022-12-23T18:50:41.302Z,99138.60
2022-12-23T18:55:44.093Z,99143.80
2022-12-23T19:00:47.776Z,99156.20
2022-12-23T19:05:51.536Z,99156.20
2022-12-23T19:10:54.780Z,99155.80
2022-12-23T19:15:56.365Z,99157.80
2022-12-23T19:21:02.224Z,99169.40
2022-12-23T19:26:05.638Z,99179.80
2022-12-23T19:31:13.877Z,99181.20
2022-12-23T19:36:21.993Z,99181.00
2022-12-23T19:41:24.299Z,99190.20
2022-12-23T19:46:26.182Z,99196.60
2022-12-23T19:51:27.722Z,99194.20
2022-12-23T19:56:29.973Z,99194.40
2022-12-23T20:01:31.653Z,99194.00
2022-12-23T20:06:37.793Z,99193.20
2022-12-23T20:11:46.521Z,99198.40
2022-12-23T20:16:48.920Z,99193.00
2022-12-23T20:21:51.786Z,99186.20
2022-12-23T20:26:53.294Z,99187.80
2022-12-23T20:31:55.548Z,99191.60
2022-12-23T20:36:57.079Z,99195.80
2022-12-23T20:41:58.699Z,99200.40
2022-12-23T20:47:00.364Z,99204.40
2022-12-23T20:52:02.723Z,99211.00
2022-12-23T20:57:05.326Z,99215.40
2022-12-23T21:02:11.739Z,99212.20
2022-12-23T21:07:13.456Z,99219.40
2022-12-23T21:12:14.990Z,99217.40
2022-12-23T21:17:16.554Z,99231.80
2022-12-23T21:22:18.989Z,99236.00
2022-12-23T21:27:24.242Z,99238.20
2022-12-23T21:32:26.497Z,99240.40
2022-12-23T21:37:37.196Z,99242.00
2022-12-23T21:42:38.953Z,99249.20
2022-12-23T21:47:40.480Z,99248.80
2022-12-23T21:52:41.987Z,99257.60
2022-12-23T21:57:44.203Z,99263.40
2022-12-23T22:02:45.776Z,99256.60
2022-12-23T22:07:47.472Z,99264.00
2022-12-23T22:12:49.017Z,99267.80
2022-12-23T22:17:51.099Z,99269.00
2022-12-23T22:22:53.940Z,99272.80
2022-12-23T22:27:55.428Z,99280.20
2022-12-23T22:32:57.022Z,99277.40
2022-12-23T22:37:58.685Z,99284.60
2022-12-23T22:43:00.191Z,99290.20
2022-12-23T22:48:01.749Z,99294.60
2022-12-23T22:53:04.922Z,99303.00
2022-12-23T22:58:07.081Z,99304.00
2022-12-23T23:03:08.628Z,99291.40
2022-12-23T23:08:11.785Z,99284.40
2022-12-23T23:13:13.294Z,99294.40
2022-12-23T23:18:15.786Z,99302.40
2022-12-23T23:23:17.399Z,99306.80
2022-12-23T23:28:18.943Z,99308.40
2022-12-23T23:33:20.429Z,99306.40
2022-12-23T23:38:23.003Z,99312.20
2022-12-23T23:43:24.889Z,99317.40
2022-12-23T23:48:26.466Z,99317.80
2022-12-23T23:53:28.056Z,99308.60
2022-12-23T23:58:29.929Z,99314.20
